CEB495 RCTP-RPLL
Flight info
| Callsign | CEB495 |
|---|---|
| Flight time | 1h 41m |
| Altitude | 38000 |
| Route | TINHO1A TINHO Q11 POTIB M646 LAO/N0463F370 B462 CAB CAB7R |
| Aircraft | B737/M-SDE2E3FGHIRWXY/LB1 |
Departure
| Time | 2026-05-04 13:00 |
|---|---|
| Airport | Taiwan Taoyuan International Airport (RCTP) |
Arrival
| Time | 2026-05-04 14:42 |
|---|---|
| Airport | Ninoy Aquino International Airport (RPLL) |
| Time | Latitude | Longitude | Altitude | Speed | Heading |
|---|---|---|---|---|---|
| 2026-05-04 12:56 | 25.07323 | 121.23605 | 113 ft | 15 kts | 230° |
| 2026-05-04 12:57 | 25.07247 | 121.23509 | 113 ft | 18 kts | 229° |
| 2026-05-04 12:57 | 25.07161 | 121.23393 | 113 ft | 21 kts | 230° |
| 2026-05-04 12:57 | 25.07060 | 121.23270 | 113 ft | 21 kts | 226° |
| 2026-05-04 12:57 | 25.06959 | 121.23144 | 113 ft | 23 kts | 229° |
| 2026-05-04 12:58 | 25.06848 | 121.23004 | 113 ft | 25 kts | 229° |
| 2026-05-04 12:58 | 25.06726 | 121.22852 | 113 ft | 27 kts | 229° |
| 2026-05-04 12:58 | 25.06598 | 121.22688 | 113 ft | 29 kts | 229° |
| 2026-05-04 12:58 | 25.06464 | 121.22519 | 114 ft | 29 kts | 229° |
| 2026-05-04 12:59 | 25.06344 | 121.22366 | 113 ft | 18 kts | 229° |
| 2026-05-04 12:59 | 25.06252 | 121.22336 | 113 ft | 13 kts | 146° |
| 2026-05-04 12:59 | 25.06184 | 121.22400 | 113 ft | 12 kts | 137° |
| 2026-05-04 12:59 | 25.06168 | 121.22456 | 113 ft | 6 kts | 59° |
| 2026-05-04 13:00 | 25.06196 | 121.22493 | 113 ft | 8 kts | 49° |
| 2026-05-04 13:00 | 25.06370 | 121.22715 | 114 ft | 80 kts | 49° |
| 2026-05-04 13:00 | 25.06919 | 121.23413 | 115 ft | 155 kts | 49° |
| 2026-05-04 13:00 | 25.07678 | 121.24345 | 778 ft | 164 kts | 51° |
| 2026-05-04 13:01 | 25.08413 | 121.25314 | 1448 ft | 174 kts | 53° |
| 2026-05-04 13:01 | 25.09211 | 121.26395 | 1901 ft | 193 kts | 52° |
| 2026-05-04 13:01 | 25.10027 | 121.27629 | 2464 ft | 205 kts | 68° |
| 2026-05-04 13:01 | 25.10163 | 121.29205 | 3009 ft | 224 kts | 104° |
| 2026-05-04 13:02 | 25.09344 | 121.30746 | 3634 ft | 245 kts | 128° |
| 2026-05-04 13:02 | 25.08118 | 121.32118 | 4335 ft | 259 kts | 134° |
| 2026-05-04 13:02 | 25.06788 | 121.33447 | 5247 ft | 264 kts | 136° |
| 2026-05-04 13:02 | 25.05446 | 121.34755 | 6299 ft | 261 kts | 136° |
| 2026-05-04 13:03 | 25.04066 | 121.36105 | 7065 ft | 268 kts | 135° |
| 2026-05-04 13:03 | 25.02661 | 121.37477 | 7896 ft | 273 kts | 135° |
| 2026-05-04 13:03 | 25.01257 | 121.38850 | 8706 ft | 276 kts | 135° |
| 2026-05-04 13:03 | 24.99804 | 121.40269 | 9491 ft | 281 kts | 135° |
| 2026-05-04 13:04 | 24.98348 | 121.41692 | 10212 ft | 286 kts | 135° |
| 2026-05-04 13:04 | 24.96795 | 121.43212 | 10531 ft | 307 kts | 135° |
| 2026-05-04 13:04 | 24.95174 | 121.44799 | 10931 ft | 322 kts | 135° |
| 2026-05-04 13:04 | 24.93405 | 121.46365 | 11540 ft | 333 kts | 148° |
| 2026-05-04 13:05 | 24.91214 | 121.47265 | 12225 ft | 341 kts | 162° |
| 2026-05-04 13:05 | 24.88902 | 121.47862 | 12974 ft | 345 kts | 165° |
| 2026-05-04 13:05 | 24.86551 | 121.48417 | 13761 ft | 348 kts | 165° |
| 2026-05-04 13:05 | 24.84183 | 121.48969 | 14494 ft | 351 kts | 165° |
| 2026-05-04 13:06 | 24.81808 | 121.49523 | 15216 ft | 353 kts | 165° |
| 2026-05-04 13:06 | 24.79428 | 121.50077 | 15903 ft | 355 kts | 165° |
| 2026-05-04 13:06 | 24.76946 | 121.50462 | 16584 ft | 360 kts | 173° |
| 2026-05-04 13:06 | 24.74450 | 121.50620 | 17225 ft | 364 kts | 175° |
| 2026-05-04 13:07 | 24.71912 | 121.50469 | 17882 ft | 369 kts | 186° |
| 2026-05-04 13:07 | 24.69391 | 121.50007 | 18511 ft | 372 kts | 188° |
| 2026-05-04 13:07 | 24.66851 | 121.49490 | 19110 ft | 375 kts | 188° |
| 2026-05-04 13:07 | 24.64288 | 121.48961 | 19711 ft | 377 kts | 188° |
| 2026-05-04 13:08 | 24.61725 | 121.48432 | 20300 ft | 380 kts | 188° |
| 2026-05-04 13:08 | 24.59122 | 121.47895 | 20903 ft | 382 kts | 188° |
| 2026-05-04 13:08 | 24.56519 | 121.47359 | 21459 ft | 385 kts | 188° |
| 2026-05-04 13:08 | 24.53892 | 121.46818 | 22020 ft | 388 kts | 188° |
| 2026-05-04 13:09 | 24.51220 | 121.46267 | 22589 ft | 390 kts | 188° |
| 2026-05-04 13:09 | 24.48561 | 121.45720 | 23087 ft | 393 kts | 188° |
| 2026-05-04 13:09 | 24.45879 | 121.45167 | 23612 ft | 395 kts | 188° |
| 2026-05-04 13:09 | 24.43196 | 121.44616 | 24121 ft | 398 kts | 188° |
| 2026-05-04 13:10 | 24.40458 | 121.44053 | 24644 ft | 400 kts | 188° |
| 2026-05-04 13:10 | 24.37739 | 121.43494 | 25126 ft | 403 kts | 188° |
| 2026-05-04 13:10 | 24.34981 | 121.42928 | 25604 ft | 405 kts | 188° |
| 2026-05-04 13:10 | 24.32214 | 121.42360 | 26056 ft | 408 kts | 188° |
| 2026-05-04 13:11 | 24.29434 | 121.41789 | 26484 ft | 411 kts | 188° |
| 2026-05-04 13:11 | 24.26595 | 121.41207 | 26927 ft | 413 kts | 188° |
| 2026-05-04 13:11 | 24.23796 | 121.40633 | 27338 ft | 415 kts | 189° |
| 2026-05-04 13:11 | 24.20957 | 121.40051 | 27717 ft | 418 kts | 189° |
| 2026-05-04 13:12 | 24.18079 | 121.39462 | 28133 ft | 421 kts | 189° |
| 2026-05-04 13:12 | 24.15194 | 121.38871 | 28484 ft | 424 kts | 189° |
| 2026-05-04 13:12 | 24.12315 | 121.38281 | 28860 ft | 426 kts | 189° |
| 2026-05-04 13:12 | 24.09414 | 121.37688 | 29253 ft | 428 kts | 189° |
| 2026-05-04 13:13 | 24.06494 | 121.37091 | 29622 ft | 429 kts | 189° |
| 2026-05-04 13:13 | 24.03560 | 121.36491 | 29986 ft | 431 kts | 189° |
| 2026-05-04 13:13 | 24.00617 | 121.35890 | 30300 ft | 434 kts | 189° |
| 2026-05-04 13:13 | 23.97644 | 121.35283 | 30710 ft | 434 kts | 189° |
| 2026-05-04 13:14 | 23.94685 | 121.34679 | 31137 ft | 433 kts | 189° |
| 2026-05-04 13:14 | 23.91727 | 121.34075 | 31543 ft | 433 kts | 189° |
| 2026-05-04 13:14 | 23.88788 | 121.33476 | 31986 ft | 432 kts | 189° |
| 2026-05-04 13:14 | 23.85828 | 121.32871 | 32402 ft | 430 kts | 189° |
| 2026-05-04 13:15 | 23.82921 | 121.32279 | 32800 ft | 429 kts | 189° |
| 2026-05-04 13:15 | 23.79973 | 121.31679 | 33147 ft | 428 kts | 189° |
| 2026-05-04 13:15 | 23.77051 | 121.31084 | 33519 ft | 428 kts | 189° |
| 2026-05-04 13:15 | 23.74168 | 121.30497 | 33902 ft | 427 kts | 189° |
| 2026-05-04 13:16 | 23.71262 | 121.29906 | 34276 ft | 425 kts | 189° |
| 2026-05-04 13:16 | 23.68337 | 121.29311 | 34596 ft | 425 kts | 189° |
| 2026-05-04 13:16 | 23.65454 | 121.28725 | 34897 ft | 424 kts | 189° |
| 2026-05-04 13:16 | 23.62590 | 121.28142 | 35220 ft | 423 kts | 189° |
| 2026-05-04 13:17 | 23.59681 | 121.27552 | 35546 ft | 422 kts | 189° |
| 2026-05-04 13:17 | 23.56827 | 121.26972 | 35821 ft | 422 kts | 189° |
| 2026-05-04 13:17 | 23.53957 | 121.26390 | 36131 ft | 421 kts | 189° |
| 2026-05-04 13:17 | 23.51093 | 121.25809 | 36382 ft | 421 kts | 189° |
| 2026-05-04 13:18 | 23.48203 | 121.25223 | 36634 ft | 421 kts | 189° |
| 2026-05-04 13:18 | 23.45330 | 121.24641 | 36860 ft | 420 kts | 189° |
| 2026-05-04 13:18 | 23.42485 | 121.24065 | 37068 ft | 420 kts | 189° |
| 2026-05-04 13:18 | 23.39601 | 121.23482 | 37267 ft | 420 kts | 189° |
| 2026-05-04 13:19 | 23.36769 | 121.22909 | 37450 ft | 420 kts | 189° |
| 2026-05-04 13:19 | 23.33910 | 121.22330 | 37659 ft | 420 kts | 189° |
| 2026-05-04 13:19 | 23.31012 | 121.21744 | 37855 ft | 420 kts | 189° |
| 2026-05-04 13:19 | 23.28157 | 121.21168 | 38028 ft | 420 kts | 189° |
| 2026-05-04 13:20 | 23.25308 | 121.20592 | 38089 ft | 423 kts | 189° |
| 2026-05-04 13:20 | 23.19463 | 121.19412 | 38102 ft | 432 kts | 189° |
| 2026-05-04 13:21 | 23.13518 | 121.18214 | 38104 ft | 441 kts | 189° |
| 2026-05-04 13:21 | 23.07447 | 121.16991 | 38103 ft | 449 kts | 189° |
| 2026-05-04 13:22 | 23.01259 | 121.15746 | 38102 ft | 457 kts | 189° |
| 2026-05-04 13:22 | 22.94966 | 121.14481 | 38100 ft | 463 kts | 189° |
| 2026-05-04 13:23 | 22.88655 | 121.13213 | 38101 ft | 463 kts | 189° |
| 2026-05-04 13:23 | 22.82367 | 121.11950 | 38101 ft | 461 kts | 189° |
| 2026-05-04 13:24 | 22.76108 | 121.10694 | 38102 ft | 459 kts | 189° |
| 2026-05-04 13:24 | 22.69858 | 121.09441 | 38103 ft | 460 kts | 189° |
| 2026-05-04 13:25 | 22.60446 | 121.07558 | 38102 ft | 461 kts | 189° |
| 2026-05-04 13:25 | 22.54143 | 121.06297 | 38102 ft | 461 kts | 189° |
| 2026-05-04 13:26 | 22.47855 | 121.05042 | 38102 ft | 461 kts | 189° |
| 2026-05-04 13:26 | 22.41582 | 121.03790 | 38101 ft | 459 kts | 189° |
| 2026-05-04 13:27 | 22.35319 | 121.02541 | 38102 ft | 460 kts | 189° |
| 2026-05-04 13:27 | 22.29053 | 121.01292 | 38102 ft | 461 kts | 189° |
| 2026-05-04 13:28 | 22.22749 | 121.00038 | 38101 ft | 461 kts | 189° |
| 2026-05-04 13:28 | 22.16478 | 120.98791 | 38101 ft | 460 kts | 189° |
| 2026-05-04 13:29 | 22.10200 | 120.97544 | 38101 ft | 459 kts | 189° |
| 2026-05-04 13:29 | 22.03939 | 120.96301 | 38100 ft | 459 kts | 189° |
| 2026-05-04 13:30 | 21.97666 | 120.95057 | 38099 ft | 460 kts | 189° |
| 2026-05-04 13:30 | 21.91424 | 120.93820 | 38094 ft | 460 kts | 189° |
| 2026-05-04 13:31 | 21.85151 | 120.92579 | 38093 ft | 460 kts | 189° |
| 2026-05-04 13:31 | 21.78849 | 120.91332 | 38089 ft | 459 kts | 189° |
| 2026-05-04 13:32 | 21.72577 | 120.90093 | 38077 ft | 460 kts | 189° |
| 2026-05-04 13:32 | 21.66291 | 120.88852 | 38051 ft | 460 kts | 189° |
| 2026-05-04 13:33 | 21.60013 | 120.87614 | 38028 ft | 460 kts | 189° |
| 2026-05-04 13:33 | 21.53763 | 120.86382 | 38021 ft | 459 kts | 189° |
| 2026-05-04 13:34 | 21.47493 | 120.85147 | 38021 ft | 459 kts | 189° |
| 2026-05-04 13:34 | 21.41199 | 120.83909 | 38021 ft | 459 kts | 189° |
| 2026-05-04 13:35 | 21.31803 | 120.82063 | 38021 ft | 460 kts | 189° |
| 2026-05-04 13:36 | 21.25520 | 120.80830 | 38020 ft | 460 kts | 189° |
| 2026-05-04 13:36 | 21.19222 | 120.79594 | 38020 ft | 460 kts | 189° |
| 2026-05-04 13:37 | 21.12944 | 120.78365 | 38020 ft | 459 kts | 189° |
| 2026-05-04 13:37 | 21.06693 | 120.77141 | 38021 ft | 459 kts | 189° |
| 2026-05-04 13:38 | 21.00429 | 120.75922 | 38019 ft | 455 kts | 187° |
| 2026-05-04 13:38 | 20.94183 | 120.75293 | 38020 ft | 451 kts | 181° |
| 2026-05-04 13:39 | 20.87927 | 120.74832 | 38023 ft | 452 kts | 182° |
| 2026-05-04 13:39 | 20.81674 | 120.74320 | 38024 ft | 453 kts | 182° |
| 2026-05-04 13:40 | 20.75424 | 120.73802 | 38024 ft | 454 kts | 182° |
| 2026-05-04 13:40 | 20.69138 | 120.73284 | 38023 ft | 454 kts | 182° |
| 2026-05-04 13:41 | 20.62857 | 120.72767 | 38023 ft | 452 kts | 182° |
| 2026-05-04 13:41 | 20.56580 | 120.72250 | 38023 ft | 453 kts | 182° |
| 2026-05-04 13:42 | 20.47193 | 120.71478 | 38022 ft | 453 kts | 182° |
| 2026-05-04 13:42 | 20.40922 | 120.70963 | 37986 ft | 454 kts | 182° |
| 2026-05-04 13:43 | 20.34642 | 120.70448 | 37943 ft | 453 kts | 182° |
| 2026-05-04 13:43 | 20.28393 | 120.69935 | 37915 ft | 452 kts | 182° |
| 2026-05-04 13:44 | 20.22163 | 120.69424 | 37913 ft | 452 kts | 182° |
| 2026-05-04 13:44 | 20.15875 | 120.68909 | 37913 ft | 453 kts | 182° |
| 2026-05-04 13:45 | 20.09607 | 120.68397 | 37912 ft | 453 kts | 182° |
| 2026-05-04 13:45 | 20.03357 | 120.67886 | 37913 ft | 453 kts | 182° |
| 2026-05-04 13:46 | 19.97126 | 120.67377 | 37912 ft | 453 kts | 182° |
| 2026-05-04 13:46 | 19.90859 | 120.66865 | 37912 ft | 453 kts | 182° |
| 2026-05-04 13:47 | 19.84578 | 120.66353 | 37916 ft | 454 kts | 182° |
| 2026-05-04 13:47 | 19.78315 | 120.65842 | 37916 ft | 454 kts | 182° |
| 2026-05-04 13:48 | 19.72047 | 120.65332 | 37916 ft | 453 kts | 182° |
| 2026-05-04 13:48 | 19.65778 | 120.64822 | 37915 ft | 452 kts | 182° |
| 2026-05-04 13:49 | 19.59544 | 120.64316 | 37915 ft | 453 kts | 182° |
| 2026-05-04 13:49 | 19.53289 | 120.63807 | 37915 ft | 453 kts | 182° |
| 2026-05-04 13:50 | 19.47002 | 120.63296 | 37914 ft | 453 kts | 182° |
| 2026-05-04 13:50 | 19.40746 | 120.62790 | 37914 ft | 453 kts | 182° |
| 2026-05-04 13:51 | 19.34491 | 120.62285 | 37914 ft | 453 kts | 182° |
| 2026-05-04 13:51 | 19.28230 | 120.61778 | 37914 ft | 454 kts | 182° |
| 2026-05-04 13:52 | 19.18854 | 120.61019 | 37913 ft | 452 kts | 182° |
| 2026-05-04 13:53 | 19.12599 | 120.60513 | 37913 ft | 452 kts | 182° |
| 2026-05-04 13:53 | 19.06378 | 120.60011 | 37913 ft | 453 kts | 182° |
| 2026-05-04 13:54 | 18.96952 | 120.59251 | 37912 ft | 455 kts | 182° |
| 2026-05-04 13:55 | 18.87472 | 120.58488 | 37916 ft | 462 kts | 181° |
| 2026-05-04 13:55 | 18.77871 | 120.57715 | 37917 ft | 464 kts | 181° |
| 2026-05-04 13:56 | 18.71445 | 120.57198 | 37916 ft | 463 kts | 181° |
| 2026-05-04 13:57 | 18.61909 | 120.56432 | 37916 ft | 461 kts | 181° |
| 2026-05-04 13:58 | 18.49105 | 120.55405 | 37916 ft | 462 kts | 181° |
| 2026-05-04 13:58 | 18.39568 | 120.54639 | 37915 ft | 460 kts | 181° |
| 2026-05-04 13:59 | 18.33207 | 120.54131 | 37916 ft | 462 kts | 181° |
| 2026-05-04 14:00 | 18.23596 | 120.53361 | 37915 ft | 462 kts | 181° |
| 2026-05-04 14:00 | 18.14112 | 120.53623 | 37918 ft | 457 kts | 168° |
| 2026-05-04 14:01 | 18.07848 | 120.54764 | 37915 ft | 456 kts | 167° |
| 2026-05-04 14:02 | 17.98532 | 120.56509 | 37915 ft | 457 kts | 167° |
| 2026-05-04 14:02 | 17.92293 | 120.57661 | 37914 ft | 456 kts | 167° |
| 2026-05-04 14:03 | 17.86053 | 120.58814 | 37915 ft | 455 kts | 167° |
| 2026-05-04 14:03 | 17.79847 | 120.59961 | 37917 ft | 455 kts | 167° |
| 2026-05-04 14:04 | 17.70512 | 120.61684 | 37916 ft | 457 kts | 167° |
| 2026-05-04 14:04 | 17.64281 | 120.62834 | 37916 ft | 457 kts | 167° |
| 2026-05-04 14:05 | 17.54958 | 120.64554 | 37915 ft | 455 kts | 167° |
| 2026-05-04 14:06 | 17.48723 | 120.65704 | 37916 ft | 456 kts | 167° |
| 2026-05-04 14:06 | 17.42505 | 120.66850 | 37915 ft | 455 kts | 167° |
| 2026-05-04 14:07 | 17.36283 | 120.67996 | 37915 ft | 455 kts | 167° |
| 2026-05-04 14:07 | 17.30091 | 120.69136 | 37914 ft | 456 kts | 167° |
| 2026-05-04 14:08 | 17.23858 | 120.70283 | 37914 ft | 456 kts | 167° |
| 2026-05-04 14:08 | 17.17647 | 120.71430 | 37914 ft | 455 kts | 167° |
| 2026-05-04 14:09 | 17.08299 | 120.73156 | 37914 ft | 457 kts | 167° |
| 2026-05-04 14:10 | 16.98935 | 120.74883 | 37914 ft | 459 kts | 167° |
| 2026-05-04 14:10 | 16.92665 | 120.76038 | 37914 ft | 461 kts | 168° |
| 2026-05-04 14:11 | 16.86380 | 120.77195 | 37914 ft | 461 kts | 168° |
| 2026-05-04 14:11 | 16.76971 | 120.78925 | 37920 ft | 459 kts | 168° |
| 2026-05-04 14:12 | 16.70700 | 120.80078 | 37940 ft | 459 kts | 168° |
| 2026-05-04 14:13 | 16.61290 | 120.81806 | 37967 ft | 460 kts | 168° |
| 2026-05-04 14:13 | 16.55014 | 120.82958 | 37968 ft | 460 kts | 168° |
| 2026-05-04 14:14 | 16.48715 | 120.84113 | 37968 ft | 460 kts | 168° |
| 2026-05-04 14:14 | 16.39302 | 120.85838 | 37967 ft | 460 kts | 168° |
| 2026-05-04 14:15 | 16.26748 | 120.88135 | 37967 ft | 460 kts | 168° |
| 2026-05-04 14:16 | 16.17329 | 120.89857 | 37967 ft | 460 kts | 168° |
| 2026-05-04 14:17 | 16.07876 | 120.91582 | 37967 ft | 460 kts | 168° |
| 2026-05-04 14:18 | 15.98479 | 120.93297 | 37967 ft | 460 kts | 168° |
| 2026-05-04 14:19 | 15.85889 | 120.95592 | 37968 ft | 460 kts | 168° |
| 2026-05-04 14:19 | 15.79627 | 120.96732 | 37967 ft | 460 kts | 167° |
| 2026-05-04 14:20 | 15.73337 | 120.97876 | 37967 ft | 461 kts | 167° |
| 2026-05-04 14:20 | 15.67028 | 120.99023 | 37967 ft | 461 kts | 167° |
| 2026-05-04 14:21 | 15.57590 | 121.00738 | 37967 ft | 461 kts | 167° |
| 2026-05-04 14:21 | 15.54421 | 121.01259 | 37474 ft | 472 kts | 171° |
| 2026-05-04 14:21 | 15.51131 | 121.01422 | 36848 ft | 480 kts | 178° |
| 2026-05-04 14:22 | 15.47795 | 121.01186 | 36280 ft | 477 kts | 185° |
| 2026-05-04 14:22 | 15.44570 | 121.00570 | 35710 ft | 479 kts | 191° |
| 2026-05-04 14:22 | 15.41381 | 120.99641 | 35163 ft | 478 kts | 195° |
| 2026-05-04 14:22 | 15.38242 | 120.98521 | 34554 ft | 477 kts | 197° |
| 2026-05-04 14:23 | 15.32035 | 120.96077 | 33213 ft | 484 kts | 198° |
| 2026-05-04 14:23 | 15.28868 | 120.94826 | 32515 ft | 486 kts | 198° |
| 2026-05-04 14:23 | 15.25767 | 120.93605 | 31819 ft | 483 kts | 198° |
| 2026-05-04 14:24 | 15.22590 | 120.92360 | 31118 ft | 488 kts | 198° |
| 2026-05-04 14:24 | 15.19458 | 120.91132 | 30431 ft | 493 kts | 198° |
| 2026-05-04 14:24 | 15.16242 | 120.89871 | 29691 ft | 493 kts | 199° |
| 2026-05-04 14:24 | 15.13035 | 120.88615 | 28923 ft | 499 kts | 199° |
| 2026-05-04 14:25 | 15.09826 | 120.87357 | 28157 ft | 502 kts | 199° |
| 2026-05-04 14:25 | 15.03246 | 120.84780 | 26607 ft | 507 kts | 199° |
| 2026-05-04 14:25 | 14.99815 | 120.83437 | 25803 ft | 508 kts | 200° |
| 2026-05-04 14:26 | 14.96384 | 120.82094 | 24997 ft | 507 kts | 200° |
| 2026-05-04 14:26 | 14.93014 | 120.80777 | 24179 ft | 498 kts | 200° |
| 2026-05-04 14:26 | 14.89761 | 120.79510 | 23387 ft | 480 kts | 201° |
| 2026-05-04 14:26 | 14.86559 | 120.78262 | 22615 ft | 472 kts | 201° |
| 2026-05-04 14:27 | 14.83422 | 120.77039 | 21834 ft | 465 kts | 201° |
| 2026-05-04 14:27 | 14.80307 | 120.75825 | 21051 ft | 460 kts | 201° |
| 2026-05-04 14:27 | 14.77232 | 120.74626 | 20274 ft | 457 kts | 201° |
| 2026-05-04 14:27 | 14.74193 | 120.73441 | 19502 ft | 457 kts | 201° |
| 2026-05-04 14:28 | 14.71147 | 120.72256 | 18719 ft | 449 kts | 201° |
| 2026-05-04 14:28 | 14.68120 | 120.71076 | 17939 ft | 450 kts | 201° |
| 2026-05-04 14:28 | 14.65039 | 120.69998 | 17147 ft | 445 kts | 193° |
| 2026-05-04 14:28 | 14.61965 | 120.69785 | 16465 ft | 430 kts | 176° |
| 2026-05-04 14:29 | 14.56148 | 120.71706 | 15176 ft | 428 kts | 152° |
| 2026-05-04 14:29 | 14.50464 | 120.72649 | 13931 ft | 401 kts | 197° |
| 2026-05-04 14:30 | 14.47932 | 120.71368 | 13323 ft | 391 kts | 221° |
| 2026-05-04 14:30 | 14.46227 | 120.69231 | 12705 ft | 366 kts | 246° |
| 2026-05-04 14:30 | 14.44920 | 120.64328 | 11465 ft | 340 kts | 255° |
| 2026-05-04 14:31 | 14.44128 | 120.62051 | 10836 ft | 334 kts | 249° |
| 2026-05-04 14:31 | 14.42134 | 120.57813 | 9779 ft | 319 kts | 243° |
| 2026-05-04 14:32 | 14.40008 | 120.53971 | 8771 ft | 302 kts | 236° |
| 2026-05-04 14:32 | 14.38463 | 120.52591 | 8306 ft | 298 kts | 206° |
| 2026-05-04 14:32 | 14.36450 | 120.52234 | 7849 ft | 296 kts | 173° |
| 2026-05-04 14:32 | 14.34607 | 120.52999 | 7474 ft | 290 kts | 140° |
| 2026-05-04 14:33 | 14.33453 | 120.54638 | 7196 ft | 277 kts | 107° |
| 2026-05-04 14:33 | 14.33097 | 120.56542 | 6918 ft | 268 kts | 93° |
| 2026-05-04 14:33 | 14.32992 | 120.58431 | 6660 ft | 266 kts | 90° |
| 2026-05-04 14:33 | 14.32931 | 120.60321 | 6388 ft | 258 kts | 90° |
| 2026-05-04 14:34 | 14.32879 | 120.62118 | 6147 ft | 245 kts | 90° |
| 2026-05-04 14:34 | 14.32829 | 120.63824 | 5987 ft | 232 kts | 90° |
| 2026-05-04 14:34 | 14.32782 | 120.65471 | 5852 ft | 227 kts | 89° |
| 2026-05-04 14:34 | 14.32737 | 120.67046 | 5695 ft | 216 kts | 89° |
| 2026-05-04 14:35 | 14.32799 | 120.68541 | 5539 ft | 204 kts | 77° |
| 2026-05-04 14:35 | 14.33226 | 120.69925 | 5377 ft | 205 kts | 66° |
| 2026-05-04 14:35 | 14.33847 | 120.71258 | 5178 ft | 203 kts | 62° |
| 2026-05-04 14:35 | 14.34560 | 120.72588 | 5031 ft | 218 kts | 62° |
| 2026-05-04 14:36 | 14.35284 | 120.73924 | 4988 ft | 205 kts | 62° |
| 2026-05-04 14:36 | 14.35984 | 120.75196 | 4998 ft | 204 kts | 63° |
| 2026-05-04 14:36 | 14.36674 | 120.76447 | 4999 ft | 206 kts | 62° |
| 2026-05-04 14:36 | 14.37396 | 120.77753 | 4956 ft | 211 kts | 62° |
| 2026-05-04 14:37 | 14.38119 | 120.79054 | 4722 ft | 207 kts | 62° |
| 2026-05-04 14:37 | 14.38830 | 120.80329 | 4492 ft | 209 kts | 62° |
| 2026-05-04 14:37 | 14.39550 | 120.81622 | 4220 ft | 211 kts | 62° |
| 2026-05-04 14:37 | 14.40286 | 120.82945 | 3927 ft | 212 kts | 62° |
| 2026-05-04 14:38 | 14.41011 | 120.84244 | 3635 ft | 210 kts | 62° |
| 2026-05-04 14:38 | 14.41749 | 120.85571 | 3344 ft | 211 kts | 62° |
| 2026-05-04 14:38 | 14.42467 | 120.86859 | 3045 ft | 204 kts | 62° |
| 2026-05-04 14:38 | 14.43163 | 120.88110 | 2757 ft | 201 kts | 62° |
| 2026-05-04 14:39 | 14.43845 | 120.89333 | 2482 ft | 192 kts | 62° |
| 2026-05-04 14:39 | 14.44505 | 120.90519 | 2230 ft | 186 kts | 62° |
| 2026-05-04 14:39 | 14.45116 | 120.91616 | 1976 ft | 172 kts | 62° |
| 2026-05-04 14:40 | 14.46286 | 120.93720 | 1513 ft | 162 kts | 63° |
| 2026-05-04 14:40 | 14.46832 | 120.94701 | 1298 ft | 156 kts | 63° |
| 2026-05-04 14:40 | 14.47369 | 120.95669 | 1091 ft | 152 kts | 63° |
| 2026-05-04 14:40 | 14.47892 | 120.96612 | 903 ft | 155 kts | 63° |
| 2026-05-04 14:41 | 14.48410 | 120.97543 | 687 ft | 148 kts | 62° |
| 2026-05-04 14:41 | 14.48937 | 120.98479 | 473 ft | 149 kts | 62° |
| 2026-05-04 14:41 | 14.49940 | 121.00294 | 124 ft | 143 kts | 62° |
| 2026-05-04 14:42 | 14.50660 | 121.01589 | 83 ft | 51 kts | 60° |
| 2026-05-04 14:42 | 14.50809 | 121.01855 | 83 ft | 38 kts | 61° |
| 2026-05-04 14:42 | 14.50898 | 121.02000 | 82 ft | 15 kts | 29° |
| 2026-05-04 14:43 | 14.50996 | 121.01961 | 83 ft | 18 kts | 315° |
| 2026-05-04 14:43 | 14.51098 | 121.01856 | 82 ft | 23 kts | 315° |
| 2026-05-04 14:43 | 14.51224 | 121.01725 | 83 ft | 27 kts | 313° |
| 2026-05-04 14:43 | 14.51350 | 121.01595 | 82 ft | 19 kts | 315° |
| 2026-05-04 14:44 | 14.51444 | 121.01598 | 83 ft | 14 kts | 33° |
| 2026-05-04 14:44 | 14.51526 | 121.01676 | 83 ft | 18 kts | 45° |
| 2026-05-04 14:44 | 14.51625 | 121.01774 | 83 ft | 17 kts | 34° |
| 2026-05-04 14:44 | 14.51720 | 121.01749 | 82 ft | 10 kts | 306° |
| 2026-05-04 14:45 | 14.51700 | 121.01704 | 82 ft | 7 kts | 205° |
| 2026-05-04 14:45 | 14.51662 | 121.01688 | 82 ft | 0 kts | 203° |